Terminal Aerodrome Forecast
Issued by NWS

Home | Current Version | Previous Version | Text Only | Print | Product List | Glossary On
Versions: 1 2 3 4 5 6 7 8 9 10 11 12 13 14 15 16 17 18 19 20 21 22 23 24 25 26 27 28 29 30 31 32 33 34
000
FTUS46 KLOX 201100
TAFLAX
TAF
KLAX 201132Z 2012/2118 VRB05KT P6SM BKN015
     FM201400 VRB03KT P6SM OVC013
     FM201700 VRB03KT P6SM BKN020
     FM202000 25012KT P6SM SCT022 BKN150
     FM210400 25006KT P6SM BKN015
     FM210800 VRB05KT P6SM OVC015
     FM211100 VRB05KT 5SM BR OVC010
     FM211700 VRB05KT P6SM SCT020=

USA.gov is the U.S. government's official web portal to all federal, state and local government web resources and services.